Airfield :
LOGIN :

Register | Disclaimer

   EN    FR    IT 

 










Legend :    VFR   Marginal VFR   IFR   Intensive IFR   Very Intensive IFR
Visi :
Ceiling :
>= 8 km
>= 3000ft
5 to 8 km
1000 to 3000 ft
1500m to 5 km
500 to 1000 ft
800 to 1500m
200 to 500 ft
< 800m
< 200 ft
Symbols :   Thunderstorms  Fog  Heavy snow  Heavy precipitations  Wind > 20 kt
SIGMETs :     Misc.  Thunderstorms  Icing  Turbulence  Mountain Waves  Volcanic Ashes






- Airport Elevation : 121 ft
- IATA code : HUY


EGNJ - Humberside

CURRENT METAR :
  • 041550Z 08010KT 7000 -SHRA FEW013 SCT018 BKN029 06/05 Q1020

EXPIRED METARs :
  • 041520Z 08011KT 9999 VCSH FEW011 SCT022 BKN034 07/05 Q1020
  • 041450Z 09013KT 9999 VCSH FEW011 SCT023 BKN035 07/05 Q1020
  • 041420Z 09012KT 9000 -SHRA FEW011 SCT021 BKN036 07/06 Q1020
  • 041350Z 08011KT 6000 -SHRA FEW012 SCT015 BKN022 07/06 Q1019
  • 041320Z 07009KT 9000 VCSH FEW011 SCT016 BKN024 07/06 Q1019 RESHRA

TAF TAF EGNJ
Valid from the 04 at 15:00 until the 05 at 00:00 UTC


041353Z 0415/0424 08009KT 9999 SCT025
PROB40
TEMPO 0415/0421 6000 SHRA BKN014
ATIS : +44 1652 682 020



MET'MAP, your aeronautical weather chart ! - Copyright ORBIFLY December 2007 - Disclaimer

ORBIFLY MET'MAP TEAM :

Programming & Development : Alexandra Zaïnal
Original concept : Baudouin d'Aumeries
Technical & hardware support : Manuel Goepfert
Assistance : Marc-Olivier Méhu




SOURCES & CREDITS :

   NOAA